Time;durP1;ratioP1;P1;durP2;ratioP2;P2;SDS_P1;SDS_P2;PMS_P1;PMS_P2;Temp;Humidity;BMP_temperature;BMP_pressure;BME280_temperature;BME280_humidity;BME280_pressure;Samples;Min_cycle;Max_cycle;Signal;HPM_P1;HPM_P2
2023/06/25 04:00:58;;;;;;;;;;;18.00;99.90;;;;;;6251974;22;20371;-72
2023/06/25 04:03:25;;;;;;;;;;;18.00;99.90;;;;;;6251302;22;19942;-73
2023/06/25 04:05:51;;;;;;;;;;;18.00;99.90;;;;;;6251222;22;19927;-73
2023/06/25 04:08:16;;;;;;;;;;;18.10;99.90;;;;;;6278257;22;19912;-72
2023/06/25 04:10:42;;;;;;;;;;;18.00;99.90;;;;;;6251324;22;20313;-73
2023/06/25 04:13:07;;;;;;;;;;;18.10;99.90;;;;;;6250902;22;19964;-73
2023/06/25 04:15:33;;;;;;;;;;;18.10;99.90;;;;;;6251023;22;19911;-74
2023/06/25 04:17:59;;;;;;;;;;;18.10;99.90;;;;;;6278264;22;20002;-72
2023/06/25 04:20:27;;;;;;;;;;;18.10;99.90;;;;;;6278183;22;19915;-72
2023/06/25 04:22:53;;;;;;;;;;;18.10;99.90;;;;;;6278089;22;19911;-72
2023/06/25 04:25:19;;;;;;;;;;;18.10;99.90;;;;;;6278476;22;19911;-72
2023/06/25 04:27:44;;;;;;;;;;;18.10;99.90;;;;;;6250968;22;19921;-72
2023/06/25 04:30:10;;;;;;;;;;;18.10;99.90;;;;;;6250915;22;19986;-71
2023/06/25 04:32:35;;;;;;;;;;;18.20;99.90;;;;;;6278310;22;20016;-72
2023/06/25 04:35:01;;;;;;;;;;;18.20;99.90;;;;;;6278292;22;19943;-73
2023/06/25 04:37:26;;;;;;;;;;;18.20;99.90;;;;;;6250917;22;20283;-72
2023/06/25 04:39:52;;;;;;;;;;;18.20;99.90;;;;;;6225512;22;19990;-72
2023/06/25 04:42:18;;;;;;;;;;;18.30;99.90;;;;;;6251265;22;19918;-72
2023/06/25 04:44:43;;;;;;;;;;;18.30;99.90;;;;;;6250732;22;19911;-71
2023/06/25 04:47:09;;;;;;;;;;;18.30;99.90;;;;;;6277851;22;19911;-72
2023/06/25 04:49:34;;;;;;;;;;;18.30;99.90;;;;;;6225524;22;19914;-72
2023/06/25 04:52:00;;;;;;;;;;;18.30;99.90;;;;;;6278088;22;19990;-73
2023/06/25 04:54:25;;;;;;;;;;;18.40;99.90;;;;;;6250880;22;20010;-72
2023/06/25 04:56:51;;;;;;;;;;;18.40;99.90;;;;;;6277751;22;19937;-72
2023/06/25 04:59:16;;;;;;;;;;;18.40;99.90;;;;;;6278057;22;19918;-72
2023/06/25 05:01:42;;;;;;;;;;;18.40;99.90;;;;;;6277875;22;19918;-71
2023/06/25 05:04:08;;;;;;;;;;;18.50;99.90;;;;;;6250617;22;19954;-72
2023/06/25 05:06:33;;;;;;;;;;;18.50;99.90;;;;;;6250601;22;20288;-71
2023/06/25 05:08:59;;;;;;;;;;;18.50;99.90;;;;;;6277681;22;19947;-72
2023/06/25 05:11:24;;;;;;;;;;;18.50;99.90;;;;;;6278190;22;19950;-73
2023/06/25 05:13:50;;;;;;;;;;;18.50;99.90;;;;;;6250480;22;19943;-73
2023/06/25 05:16:15;;;;;;;;;;;18.60;99.90;;;;;;6250424;22;19912;-72
2023/06/25 05:18:41;;;;;;;;;;;18.60;99.90;;;;;;6249922;22;19911;-73
2023/06/25 05:21:06;;;;;;;;;;;18.70;99.90;;;;;;6225095;22;19911;-72
2023/06/25 05:23:41;;;;;;;;;;;18.70;99.90;;;;;;6250483;22;20248;-72
2023/06/25 05:26:07;;;;;;;;;;;18.70;99.90;;;;;;6250323;22;19961;-72
2023/06/25 05:28:32;;;;;;;;;;;18.80;99.90;;;;;;6225056;22;20255;-73
2023/06/25 05:30:58;;;;;;;;;;;18.80;99.90;;;;;;6250889;22;19933;-72
2023/06/25 05:33:23;;;;;;;;;;;18.90;99.90;;;;;;6250201;22;19950;-73
2023/06/25 05:35:49;;;;;;;;;;;18.90;99.90;;;;;;6277466;22;19911;-72
2023/06/25 05:38:15;;;;;;;;;;;18.90;99.90;;;;;;6250245;22;20248;-73
2023/06/25 05:40:40;;;;;;;;;;;18.90;99.90;;;;;;6250207;22;19911;-73
2023/06/25 05:43:06;;;;;;;;;;;19.00;99.90;;;;;;6250184;22;19976;-73
2023/06/25 05:45:31;;;;;;;;;;;19.00;99.90;;;;;;6277544;22;20198;-72
2023/06/25 05:47:57;;;;;;;;;;;19.10;99.90;;;;;;6277246;22;19911;-73
2023/06/25 05:50:23;;;;;;;;;;;19.10;99.90;;;;;;6250173;22;19915;-72
2023/06/25 05:52:48;;;;;;;;;;;19.20;99.90;;;;;;6276594;22;19952;-72
2023/06/25 05:55:14;;;;;;;;;;;19.20;99.90;;;;;;6277387;22;19984;-73
2023/06/25 05:57:39;;;;;;;;;;;19.30;99.90;;;;;;6250039;22;19918;-72
2023/06/25 06:00:05;;;;;;;;;;;19.30;99.90;;;;;;6250076;22;19914;-73
2023/06/25 06:02:31;;;;;;;;;;;19.30;99.90;;;;;;6249749;22;19911;-73
2023/06/25 06:04:56;;;;;;;;;;;19.40;99.90;;;;;;6250009;22;19911;-72
2023/06/25 06:07:22;;;;;;;;;;;19.40;99.90;;;;;;6250374;22;19918;-72
2023/06/25 06:09:48;;;;;;;;;;;19.50;99.90;;;;;;6277191;22;19934;-73
2023/06/25 06:12:13;;;;;;;;;;;19.50;99.90;;;;;;6249745;22;19996;-72
2023/06/25 06:14:40;;;;;;;;;;;19.60;99.90;;;;;;6249949;22;19911;-72
2023/06/25 06:17:05;;;;;;;;;;;19.70;99.90;;;;;;6249935;22;19915;-72
2023/06/25 06:19:31;;;;;;;;;;;19.70;99.90;;;;;;6277134;22;19911;-71
2023/06/25 06:21:56;;;;;;;;;;;19.80;99.90;;;;;;6249944;22;20284;-72
2023/06/25 06:24:22;;;;;;;;;;;19.80;99.90;;;;;;6250019;22;19918;-72
2023/06/25 06:26:51;;;;;;;;;;;19.90;99.90;;;;;;6249871;22;19912;-72
2023/06/25 06:29:17;;;;;;;;;;;19.90;99.90;;;;;;6249893;22;19953;-72
2023/06/25 06:31:43;;;;;;;;;;;20.00;99.90;;;;;;6276744;22;19923;-72
2023/06/25 06:34:08;;;;;;;;;;;20.00;99.90;;;;;;6249763;22;19918;-71
2023/06/25 06:36:34;;;;;;;;;;;20.10;99.90;;;;;;6249762;22;19986;-72
2023/06/25 06:38:59;;;;;;;;;;;20.10;99.90;;;;;;6276914;22;19981;-72
2023/06/25 06:41:25;;;;;;;;;;;20.20;99.90;;;;;;6249722;22;20292;-71
2023/06/25 06:43:50;;;;;;;;;;;20.20;99.90;;;;;;6249839;22;19911;-71
2023/06/25 06:46:16;;;;;;;;;;;20.30;99.90;;;;;;6277198;22;19961;-72
2023/06/25 06:48:43;;;;;;;;;;;20.30;99.90;;;;;;6249809;22;19912;-72
2023/06/25 06:51:08;;;;;;;;;;;20.30;99.90;;;;;;6249664;22;19957;-70
2023/06/25 06:53:34;;;;;;;;;;;20.30;99.90;;;;;;6277075;22;19915;-72
2023/06/25 06:55:59;;;;;;;;;;;20.30;99.90;;;;;;6276811;22;19911;-71
2023/06/25 06:58:25;;;;;;;;;;;20.40;99.90;;;;;;6250585;22;19938;-71
2023/06/25 07:00:50;;;;;;;;;;;20.50;99.90;;;;;;6276430;22;20355;-71
2023/06/25 07:03:16;;;;;;;;;;;20.50;99.90;;;;;;6276983;22;19911;-72
2023/06/25 07:05:41;;;;;;;;;;;20.60;99.90;;;;;;6249881;22;19911;-72
2023/06/25 07:08:07;;;;;;;;;;;20.70;99.90;;;;;;6249765;22;19911;-72
2023/06/25 07:10:32;;;;;;;;;;;20.80;99.90;;;;;;6250398;22;20232;-72
2023/06/25 07:12:58;;;;;;;;;;;20.80;99.90;;;;;;6276518;22;19955;-72
2023/06/25 07:15:23;;;;;;;;;;;20.90;99.90;;;;;;6247878;22;20391;-72
2023/06/25 07:17:49;;;;;;;;;;;21.00;99.90;;;;;;6274836;22;19949;-71
2023/06/25 07:20:15;;;;;;;;;;;21.10;99.90;;;;;;6276121;22;19915;-72
2023/06/25 07:22:40;;;;;;;;;;;21.30;99.90;;;;;;6248739;22;20386;-71
2023/06/25 07:25:09;;;;;;;;;;;21.30;99.90;;;;;;6248730;22;20339;-71
2023/06/25 07:27:35;;;;;;;;;;;21.40;99.90;;;;;;6223759;22;19950;-72
2023/06/25 07:30:01;;;;;;;;;;;21.60;99.90;;;;;;6276377;22;19911;-74
2023/06/25 07:32:26;;;;;;;;;;;21.60;99.90;;;;;;6276829;22;19990;-74
2023/06/25 07:34:52;;;;;;;;;;;21.80;99.90;;;;;;6249622;22;20394;-73
2023/06/25 07:37:18;;;;;;;;;;;21.80;99.90;;;;;;6276661;22;19911;-73
2023/06/25 07:39:44;;;;;;;;;;;21.90;99.90;;;;;;6249486;22;19918;-72
2023/06/25 07:42:09;;;;;;;;;;;21.90;99.90;;;;;;6250091;22;19911;-72
2023/06/25 07:44:35;;;;;;;;;;;22.00;99.90;;;;;;6251312;22;19915;-72
2023/06/25 07:47:01;;;;;;;;;;;22.00;99.90;;;;;;6251422;22;19911;-73
2023/06/25 07:49:26;;;;;;;;;;;22.20;99.90;;;;;;6251288;22;19911;-72
2023/06/25 07:51:53;;;;;;;;;;;22.30;99.90;;;;;;6251122;22;19926;-72
2023/06/25 07:54:18;;;;;;;;;;;22.40;99.90;;;;;;6278818;22;19914;-71
2023/06/25 07:56:44;;;;;;;;;;;22.40;99.90;;;;;;6251209;22;19918;-72
2023/06/25 07:59:12;;;;;;;;;;;22.50;99.90;;;;;;6278274;22;19911;-72
2023/06/25 08:01:38;;;;;;;;;;;22.50;99.90;;;;;;6251237;22;19947;-72
2023/06/25 08:04:04;;;;;;;;;;;22.60;99.90;;;;;;6278684;22;19918;-72
2023/06/25 08:06:29;;;;;;;;;;;22.70;99.90;;;;;;6250973;22;20280;-72
2023/06/25 08:08:55;;;;;;;;;;;22.70;99.90;;;;;;6225671;22;20325;-72
2023/06/25 08:11:20;;;;;;;;;;;22.80;99.90;;;;;;6251075;22;19911;-73
2023/06/25 08:13:46;;;;;;;;;;;22.80;99.90;;;;;;6251082;22;20255;-73
2023/06/25 08:16:12;;;;;;;;;;;22.90;99.90;;;;;;6251011;22;20260;-73
2023/06/25 08:18:37;;;;;;;;;;;23.00;99.90;;;;;;6278878;22;19994;-73
2023/06/25 08:21:03;;;;;;;;;;;23.10;99.90;;;;;;6278430;22;19918;-72
2023/06/25 08:23:28;;;;;;;;;;;23.20;99.90;;;;;;6251029;22;19918;-73
2023/06/25 08:25:54;;;;;;;;;;;23.30;99.90;;;;;;6278135;22;19982;-73
2023/06/25 08:28:20;;;;;;;;;;;23.50;99.90;;;;;;6278409;22;19942;-73
2023/06/25 08:30:45;;;;;;;;;;;23.60;99.90;;;;;;6250892;22;19965;-73
2023/06/25 08:33:11;;;;;;;;;;;23.70;99.90;;;;;;6250735;22;19941;-73
2023/06/25 08:35:37;;;;;;;;;;;23.80;99.90;;;;;;6277894;22;19911;-74
2023/06/25 08:38:02;;;;;;;;;;;23.90;99.90;;;;;;6250901;22;19911;-73
2023/06/25 08:40:29;;;;;;;;;;;24.00;99.90;;;;;;6250756;22;20005;-72
2023/06/25 08:42:55;;;;;;;;;;;24.20;99.90;;;;;;6277877;22;20299;-72
2023/06/25 08:45:20;;;;;;;;;;;24.30;99.90;;;;;;6250728;22;19981;-74
2023/06/25 08:47:48;;;;;;;;;;;24.40;99.90;;;;;;6250707;22;19911;-73
2023/06/25 08:50:13;;;;;;;;;;;24.50;99.90;;;;;;6225425;22;19911;-71
2023/06/25 08:52:39;;;;;;;;;;;24.50;99.90;;;;;;6277550;22;19960;-73
2023/06/25 08:55:09;;;;;;;;;;;24.70;99.90;;;;;;6278117;22;19931;-72
2023/06/25 08:57:35;;;;;;;;;;;24.80;99.90;;;;;;6250716;22;19911;-73
2023/06/25 09:00:00;;;;;;;;;;;24.90;99.90;;;;;;6250645;22;19911;-74
2023/06/25 09:02:29;;;;;;;;;;;25.10;99.90;;;;;;6250406;22;20233;-73
2023/06/25 09:05:09;;;;;;;;;;;25.20;99.90;;;;;;6250567;22;19946;-73
2023/06/25 09:07:42;;;;;;;;;;;25.20;99.90;;;;;;6250689;22;20256;-72
2023/06/25 09:10:08;;;;;;;;;;;25.30;99.90;;;;;;6250469;22;19911;-72
2023/06/25 09:12:33;;;;;;;;;;;25.40;99.90;;;;;;6277947;22;19993;-74
2023/06/25 09:14:59;;;;;;;;;;;25.50;99.90;;;;;;6250521;22;20000;-72
2023/06/25 09:17:24;;;;;;;;;;;25.70;99.90;;;;;;6277784;22;19915;-73
2023/06/25 09:19:51;;;;;;;;;;;25.80;99.90;;;;;;6277421;22;19915;-71
2023/06/25 09:22:16;;;;;;;;;;;26.00;99.90;;;;;;6277576;22;19911;-73
2023/06/25 09:24:49;;;;;;;;;;;26.00;99.90;;;;;;6250201;22;20312;-72
2023/06/25 09:27:14;;;;;;;;;;;26.10;99.90;;;;;;6250165;22;19918;-72
2023/06/25 09:29:40;;;;;;;;;;;26.20;99.90;;;;;;6250078;22;19911;-73
2023/06/25 09:32:09;;;;;;;;;;;26.30;99.90;;;;;;6249984;22;19969;-73
2023/06/25 09:34:36;;;;;;;;;;;26.50;99.90;;;;;;6225363;22;19960;-72
2023/06/25 09:37:01;;;;;;;;;;;26.60;99.90;;;;;;6277420;22;19943;-71
2023/06/25 09:39:27;;;;;;;;;;;26.70;99.90;;;;;;6277541;22;20324;-72
2023/06/25 09:41:53;;;;;;;;;;;26.80;99.90;;;;;;6278225;22;19942;-73
2023/06/25 09:44:19;;;;;;;;;;;27.00;99.90;;;;;;6250102;22;19919;-71
2023/06/25 09:46:46;;;;;;;;;;;27.00;99.90;;;;;;6250142;22;20396;-72
2023/06/25 09:49:13;;;;;;;;;;;27.10;99.90;;;;;;6277508;22;19911;-73
2023/06/25 09:51:51;;;;;;;;;;;27.10;99.90;;;;;;6249924;22;19911;-70
2023/06/25 09:54:19;;;;;;;;;;;27.20;99.90;;;;;;6250083;22;19934;-71
2023/06/25 09:56:47;;;;;;;;;;;27.20;99.90;;;;;;6251697;22;19911;-72
2023/06/25 09:59:12;;;;;;;;;;;27.40;99.90;;;;;;6280037;22;19915;-72
2023/06/25 10:01:38;;;;;;;;;;;27.50;99.90;;;;;;6252483;22;20328;-71
2023/06/25 10:04:04;;;;;;;;;;;27.70;99.90;;;;;;6252406;22;20321;-73
2023/06/25 10:06:30;;;;;;;;;;;27.80;99.90;;;;;;6250029;22;19911;-71
2023/06/25 10:08:55;;;;;;;;;;;27.80;99.90;;;;;;6224745;22;19914;-71
2023/06/25 10:11:21;;;;;;;;;;;27.90;99.90;;;;;;6277037;22;19986;-71
2023/06/25 10:13:48;;;;;;;;;;;27.90;98.10;;;;;;6249965;22;19958;-70
2023/06/25 10:16:18;;;;;;;;;;;28.00;98.10;;;;;;6250011;22;19986;-72
2023/06/25 10:18:45;;;;;;;;;;;28.10;98.90;;;;;;6277527;22;19973;-71
2023/06/25 10:21:17;;;;;;;;;;;28.10;96.00;;;;;;6276511;22;19974;-71
2023/06/25 10:23:42;;;;;;;;;;;28.20;96.40;;;;;;6276023;22;19911;-72
2023/06/25 10:26:12;;;;;;;;;;;28.30;97.10;;;;;;6248537;22;19923;-70
2023/06/25 10:28:38;;;;;;;;;;;28.30;97.20;;;;;;6249785;22;19994;-73
2023/06/25 10:31:13;;;;;;;;;;;28.30;96.60;;;;;;6249705;22;19942;-71
2023/06/25 10:33:39;;;;;;;;;;;28.40;96.10;;;;;;6249720;22;19915;-72
2023/06/25 10:36:06;;;;;;;;;;;28.40;96.40;;;;;;6276762;22;19961;-72
2023/06/25 10:38:32;;;;;;;;;;;28.40;96.00;;;;;;6277512;22;20305;-72
2023/06/25 10:40:57;;;;;;;;;;;28.40;94.20;;;;;;6249704;22;19976;-72
2023/06/25 10:43:23;;;;;;;;;;;28.60;95.70;;;;;;6249847;22;19911;-71
2023/06/25 10:45:55;;;;;;;;;;;28.60;94.00;;;;;;6249782;22;19911;-72
2023/06/25 10:48:21;;;;;;;;;;;28.70;95.30;;;;;;6249789;22;19911;-77
2023/06/25 10:50:47;;;;;;;;;;;28.80;95.10;;;;;;6249720;22;19911;-71
2023/06/25 10:53:13;;;;;;;;;;;28.90;94.60;;;;;;6249281;22;19964;-72
2023/06/25 10:55:43;;;;;;;;;;;28.90;94.50;;;;;;6247760;22;19911;-72
2023/06/25 10:58:09;;;;;;;;;;;29.00;94.40;;;;;;6248148;22;19946;-73
2023/06/25 11:00:35;;;;;;;;;;;29.10;93.70;;;;;;6246409;22;19918;-75
2023/06/25 11:03:01;;;;;;;;;;;29.10;90.10;;;;;;6248676;22;19961;-74
2023/06/25 11:05:42;;;;;;;;;;;29.10;91.30;;;;;;6276092;22;19912;-72
2023/06/25 11:08:08;;;;;;;;;;;29.10;91.50;;;;;;6276238;22;19911;-73
2023/06/25 11:10:35;;;;;;;;;;;29.10;91.30;;;;;;6249986;22;19962;-73
2023/06/25 11:13:01;;;;;;;;;;;29.10;90.70;;;;;;6276633;22;19993;-76
2023/06/25 11:15:33;;;;;;;;;;;29.20;90.40;;;;;;6276445;22;19911;-74
2023/06/25 11:17:59;;;;;;;;;;;29.30;90.30;;;;;;6276407;22;20275;-73
2023/06/25 11:20:26;;;;;;;;;;;29.40;90.70;;;;;;6249007;22;20137;-73
2023/06/25 11:22:51;;;;;;;;;;;29.50;91.40;;;;;;6249129;22;19961;-73
2023/06/25 11:25:20;;;;;;;;;;;29.50;90.00;;;;;;6249915;22;19911;-73
2023/06/25 11:27:46;;;;;;;;;;;29.60;89.10;;;;;;6277766;22;19914;-74
2023/06/25 11:30:12;;;;;;;;;;;29.60;87.90;;;;;;6250923;22;19946;-72
2023/06/25 11:32:38;;;;;;;;;;;29.60;87.40;;;;;;6278410;22;19930;-74
2023/06/25 11:35:10;;;;;;;;;;;29.60;89.60;;;;;;6278490;22;19960;-73
2023/06/25 11:37:43;;;;;;;;;;;29.60;87.80;;;;;;6278597;22;19946;-74
2023/06/25 11:40:19;;;;;;;;;;;29.70;89.20;;;;;;6251380;22;19915;-73
2023/06/25 11:42:44;;;;;;;;;;;29.70;87.90;;;;;;6278975;22;19946;-72
2023/06/25 11:45:10;;;;;;;;;;;29.80;87.60;;;;;;6251395;22;19918;-73
2023/06/25 11:47:35;;;;;;;;;;;29.60;82.40;;;;;;6251298;22;20252;-73
2023/06/25 11:50:01;;;;;;;;;;;29.70;82.80;;;;;;6251313;22;19911;-73
2023/06/25 11:52:27;;;;;;;;;;;29.80;84.40;;;;;;6251136;22;19915;-73
2023/06/25 11:54:52;;;;;;;;;;;29.70;82.70;;;;;;6251188;22;20280;-73
2023/06/25 11:57:18;;;;;;;;;;;29.60;82.10;;;;;;6278736;22;19911;-73
2023/06/25 11:59:44;;;;;;;;;;;29.60;81.60;;;;;;6251230;22;19914;-71
2023/06/25 12:02:10;;;;;;;;;;;29.70;79.10;;;;;;6278150;22;19912;-72
2023/06/25 12:04:36;;;;;;;;;;;29.70;79.70;;;;;;6251061;22;19922;-73
2023/06/25 12:07:02;;;;;;;;;;;29.70;77.90;;;;;;6278171;22;19911;-72
2023/06/25 12:09:27;;;;;;;;;;;29.70;79.50;;;;;;6251153;22;19911;-72
2023/06/25 12:11:53;;;;;;;;;;;29.70;80.70;;;;;;6277964;22;19915;-72
2023/06/25 12:14:18;;;;;;;;;;;29.70;80.30;;;;;;6278274;22;19918;-73
2023/06/25 12:16:44;;;;;;;;;;;29.80;81.20;;;;;;6251109;22;20210;-72
2023/06/25 12:19:09;;;;;;;;;;;29.90;81.60;;;;;;6278908;22;19918;-72
2023/06/25 12:21:35;;;;;;;;;;;30.00;78.50;;;;;;6251048;22;19965;-73
2023/06/25 12:24:00;;;;;;;;;;;30.00;79.00;;;;;;6251062;22;19915;-72
2023/06/25 12:26:26;;;;;;;;;;;29.90;79.00;;;;;;6250996;22;19911;-72
2023/06/25 12:28:51;;;;;;;;;;;29.90;78.90;;;;;;6278165;22;19986;-73
2023/06/25 12:31:17;;;;;;;;;;;29.90;79.30;;;;;;6250939;22;19911;-74
2023/06/25 12:33:43;;;;;;;;;;;29.90;79.80;;;;;;6250881;22;19938;-72
2023/06/25 12:36:08;;;;;;;;;;;30.00;80.50;;;;;;6278784;22;19961;-72
2023/06/25 12:38:34;;;;;;;;;;;30.10;81.10;;;;;;6278003;22;19911;-72
2023/06/25 12:41:00;;;;;;;;;;;30.20;80.90;;;;;;6251117;22;19973;-72
2023/06/25 12:43:26;;;;;;;;;;;30.30;80.10;;;;;;6277841;22;19922;-73
2023/06/25 12:45:51;;;;;;;;;;;30.30;80.90;;;;;;6278197;22;20266;-74
2023/06/25 12:48:17;;;;;;;;;;;30.30;78.70;;;;;;6278339;22;19934;-72
2023/06/25 12:50:42;;;;;;;;;;;30.20;77.60;;;;;;6250782;22;19935;-74
2023/06/25 12:53:08;;;;;;;;;;;30.30;78.10;;;;;;6250610;22;19989;-71
2023/06/25 12:55:33;;;;;;;;;;;30.30;77.90;;;;;;6278568;22;19919;-74
2023/06/25 12:57:59;;;;;;;;;;;30.30;76.80;;;;;;6250772;22;19911;-72
2023/06/25 13:00:24;;;;;;;;;;;30.20;74.40;;;;;;6225093;22;20288;-74
2023/06/25 13:02:50;;;;;;;;;;;30.20;75.10;;;;;;6250738;22;20278;-72
2023/06/25 13:05:16;;;;;;;;;;;30.20;74.60;;;;;;6277998;22;19918;-72
2023/06/25 13:07:42;;;;;;;;;;;30.20;74.60;;;;;;6278099;22;19918;-73
2023/06/25 13:10:07;;;;;;;;;;;30.30;72.60;;;;;;6250485;22;19946;-73
2023/06/25 13:12:33;;;;;;;;;;;30.30;72.60;;;;;;6277766;22;19961;-73
2023/06/25 13:14:58;;;;;;;;;;;30.30;73.90;;;;;;6277964;22;20329;-71
2023/06/25 13:17:24;;;;;;;;;;;30.30;72.10;;;;;;6250502;22;20214;-72
2023/06/25 13:19:49;;;;;;;;;;;30.30;74.40;;;;;;6277914;22;19911;-73
2023/06/25 13:22:15;;;;;;;;;;;30.40;74.60;;;;;;6277808;22;19915;-72
2023/06/25 13:24:43;;;;;;;;;;;30.60;75.90;;;;;;6250479;22;19911;-72
2023/06/25 13:27:09;;;;;;;;;;;30.70;74.70;;;;;;6250503;22;20287;-72
2023/06/25 13:29:34;;;;;;;;;;;30.80;73.90;;;;;;6250459;22;19937;-72
2023/06/25 13:32:00;;;;;;;;;;;30.80;70.50;;;;;;6250148;22;19919;-73
2023/06/25 13:34:25;;;;;;;;;;;30.70;72.70;;;;;;6250271;22;19915;-72
2023/06/25 13:36:51;;;;;;;;;;;30.70;73.20;;;;;;6250330;22;19967;-72
2023/06/25 13:39:17;;;;;;;;;;;30.70;72.40;;;;;;6250032;22;19957;-72
2023/06/25 13:41:42;;;;;;;;;;;30.80;74.00;;;;;;6250125;22;19938;-71
2023/06/25 13:44:08;;;;;;;;;;;30.90;73.90;;;;;;6278713;22;20309;-71
2023/06/25 13:46:33;;;;;;;;;;;31.00;74.10;;;;;;6277700;22;20210;-72
2023/06/25 13:49:00;;;;;;;;;;;31.10;71.70;;;;;;6277535;22;19915;-73
2023/06/25 13:51:26;;;;;;;;;;;31.00;73.70;;;;;;6277262;22;19915;-71
2023/06/25 13:53:51;;;;;;;;;;;31.00;72.10;;;;;;6277509;22;19954;-72
2023/06/25 13:56:17;;;;;;;;;;;30.90;72.80;;;;;;6277579;22;19968;-74
2023/06/25 13:58:42;;;;;;;;;;;30.80;73.50;;;;;;6277618;22;19939;-72
2023/06/25 14:01:08;;;;;;;;;;;30.90;73.80;;;;;;6249823;22;19911;-73
2023/06/25 14:03:33;;;;;;;;;;;31.10;74.00;;;;;;6249999;22;19911;-71
2023/06/25 14:05:59;;;;;;;;;;;31.10;74.10;;;;;;6249985;22;19933;-71
2023/06/25 14:08:24;;;;;;;;;;;31.10;71.90;;;;;;6249876;22;19911;-72
2023/06/25 14:10:50;;;;;;;;;;;31.20;72.80;;;;;;6277131;22;19918;-73
2023/06/25 14:13:17;;;;;;;;;;;31.20;71.70;;;;;;6249946;22;20248;-72
2023/06/25 14:15:43;;;;;;;;;;;31.10;72.60;;;;;;6249984;22;20006;-73
2023/06/25 14:18:08;;;;;;;;;;;31.10;71.70;;;;;;6249948;22;20324;-72
2023/06/25 14:20:34;;;;;;;;;;;31.10;72.50;;;;;;6249809;22;20316;-73
2023/06/25 14:23:00;;;;;;;;;;;31.20;71.80;;;;;;6249965;22;19911;-72
2023/06/25 14:25:26;;;;;;;;;;;31.20;71.40;;;;;;6277313;22;19988;-73
2023/06/25 14:27:52;;;;;;;;;;;31.10;69.80;;;;;;6249875;22;19914;-72
2023/06/25 14:30:19;;;;;;;;;;;30.90;70.60;;;;;;6249837;22;19917;-73
2023/06/25 14:32:44;;;;;;;;;;;30.80;71.40;;;;;;6276894;22;20298;-74
2023/06/25 14:35:10;;;;;;;;;;;30.90;71.80;;;;;;6249850;22;19911;-73
2023/06/25 14:37:35;;;;;;;;;;;30.90;73.10;;;;;;6277229;22;20279;-72
2023/06/25 14:40:01;;;;;;;;;;;31.00;72.00;;;;;;6249795;22;19911;-72
2023/06/25 14:42:27;;;;;;;;;;;31.00;71.70;;;;;;6277040;22;19911;-73
2023/06/25 14:44:52;;;;;;;;;;;31.10;72.20;;;;;;6249726;22;19986;-71
2023/06/25 14:47:18;;;;;;;;;;;31.20;73.60;;;;;;6276834;22;19918;-72
2023/06/25 14:49:43;;;;;;;;;;;31.20;73.00;;;;;;6277271;22;19911;-72
2023/06/25 14:52:09;;;;;;;;;;;31.20;72.90;;;;;;6278533;22;19915;-73
2023/06/25 14:54:34;;;;;;;;;;;31.20;73.40;;;;;;6279366;22;19957;-73
2023/06/25 14:57:00;;;;;;;;;;;31.20;73.80;;;;;;6251920;22;20291;-73
2023/06/25 14:59:25;;;;;;;;;;;31.20;73.50;;;;;;6251965;22;19918;-73
2023/06/25 15:01:51;;;;;;;;;;;31.20;72.80;;;;;;6251601;22;19990;-74
2023/06/25 15:04:16;;;;;;;;;;;31.10;73.90;;;;;;6251814;22;19958;-72
2023/06/25 15:06:42;;;;;;;;;;;31.10;72.90;;;;;;6251749;22;19911;-73
2023/06/25 15:09:08;;;;;;;;;;;31.00;73.70;;;;;;6252067;22;20245;-72
2023/06/25 15:11:33;;;;;;;;;;;31.10;74.80;;;;;;6279179;22;19911;-73
2023/06/25 15:13:59;;;;;;;;;;;31.00;74.10;;;;;;6278923;22;19922;-72
2023/06/25 15:16:25;;;;;;;;;;;31.00;73.90;;;;;;6251743;22;19918;-74
2023/06/25 15:18:54;;;;;;;;;;;31.10;74.80;;;;;;6278802;22;20276;-72
2023/06/25 15:21:20;;;;;;;;;;;31.10;74.70;;;;;;6278865;22;19911;-73
2023/06/25 15:23:45;;;;;;;;;;;31.20;74.70;;;;;;6251745;22;20257;-75
2023/06/25 15:26:13;;;;;;;;;;;31.20;74.60;;;;;;6278928;22;20269;-71
2023/06/25 15:28:42;;;;;;;;;;;31.20;75.50;;;;;;6279158;22;20002;-73
2023/06/25 15:31:08;;;;;;;;;;;31.20;75.80;;;;;;6251591;22;19911;-73
2023/06/25 15:33:34;;;;;;;;;;;31.30;75.80;;;;;;6278756;22;19922;-72
2023/06/25 15:36:00;;;;;;;;;;;31.30;75.70;;;;;;6279232;22;20316;-72
2023/06/25 15:38:25;;;;;;;;;;;31.30;75.00;;;;;;6226568;22;19915;-73
2023/06/25 15:40:51;;;;;;;;;;;31.30;76.10;;;;;;6278759;22;19965;-72
2023/06/25 15:43:16;;;;;;;;;;;31.20;75.20;;;;;;6279002;22;19911;-76
2023/06/25 15:45:42;;;;;;;;;;;31.20;75.20;;;;;;6279280;22;19911;-72
2023/06/25 15:48:07;;;;;;;;;;;31.10;75.90;;;;;;6278564;22;20029;-74
2023/06/25 15:50:33;;;;;;;;;;;31.10;75.80;;;;;;6251783;22;20022;-73
2023/06/25 15:52:58;;;;;;;;;;;31.10;76.90;;;;;;6251335;22;19915;-73
2023/06/25 15:55:24;;;;;;;;;;;31.10;76.40;;;;;;6278863;22;20236;-71
2023/06/25 15:57:50;;;;;;;;;;;31.10;76.20;;;;;;6278661;22;19986;-71
2023/06/25 16:00:17;;;;;;;;;;;31.20;77.10;;;;;;6278494;22;20317;-72
2023/06/25 16:02:43;;;;;;;;;;;31.10;77.40;;;;;;6251137;22;19956;-72
2023/06/25 16:05:08;;;;;;;;;;;31.00;76.50;;;;;;6251125;22;19986;-73
2023/06/25 16:07:34;;;;;;;;;;;31.00;76.80;;;;;;6251593;22;19946;-73
2023/06/25 16:09:59;;;;;;;;;;;30.90;76.70;;;;;;6278795;22;19911;-72
2023/06/25 16:12:25;;;;;;;;;;;30.90;77.50;;;;;;6278431;22;19968;-72
2023/06/25 16:14:50;;;;;;;;;;;30.90;77.30;;;;;;6278622;22;19918;-73
2023/06/25 16:17:16;;;;;;;;;;;30.90;78.10;;;;;;6278713;22;20329;-71
2023/06/25 16:19:41;;;;;;;;;;;30.90;77.10;;;;;;6251060;22;20305;-74
2023/06/25 16:22:07;;;;;;;;;;;31.00;77.00;;;;;;6250923;22;19917;-73
2023/06/25 16:24:33;;;;;;;;;;;30.90;77.00;;;;;;6251357;22;20240;-73
2023/06/25 16:26:58;;;;;;;;;;;30.90;77.20;;;;;;6251021;22;20377;-73
2023/06/25 16:29:24;;;;;;;;;;;30.90;78.10;;;;;;6250910;22;19911;-73
2023/06/25 16:31:50;;;;;;;;;;;30.90;77.90;;;;;;6277916;22;20279;-73
2023/06/25 16:34:16;;;;;;;;;;;30.80;77.90;;;;;;6278349;22;19922;-72
2023/06/25 16:36:41;;;;;;;;;;;30.70;78.30;;;;;;6250897;22;19911;-73
2023/06/25 16:39:07;;;;;;;;;;;30.80;78.80;;;;;;6250820;22;19964;-72
2023/06/25 16:41:33;;;;;;;;;;;30.80;78.80;;;;;;6278129;22;19918;-74
2023/06/25 16:43:59;;;;;;;;;;;30.90;79.00;;;;;;6250803;22;20243;-74
2023/06/25 16:46:24;;;;;;;;;;;30.90;78.40;;;;;;6278049;22;19918;-73
2023/06/25 16:48:50;;;;;;;;;;;30.80;78.20;;;;;;6250812;22;19911;-73
2023/06/25 16:51:19;;;;;;;;;;;30.70;77.70;;;;;;6250681;22;19921;-73
2023/06/25 16:53:44;;;;;;;;;;;30.70;78.60;;;;;;6277790;22;19958;-72
2023/06/25 16:56:10;;;;;;;;;;;30.70;78.70;;;;;;6277881;22;19968;-72
2023/06/25 16:58:35;;;;;;;;;;;30.70;77.60;;;;;;6278299;22;19969;-72
2023/06/25 17:01:01;;;;;;;;;;;30.60;77.50;;;;;;6277652;22;19968;-72
2023/06/25 17:03:28;;;;;;;;;;;30.50;78.60;;;;;;6250892;22;19911;-74
2023/06/25 17:05:54;;;;;;;;;;;30.40;78.80;;;;;;6250618;22;19911;-73
2023/06/25 17:08:19;;;;;;;;;;;30.30;78.40;;;;;;6250741;22;20025;-74
2023/06/25 17:10:45;;;;;;;;;;;30.30;79.00;;;;;;6225394;22;19937;-72
2023/06/25 17:13:10;;;;;;;;;;;30.30;78.30;;;;;;6277619;22;20224;-74
2023/06/25 17:15:36;;;;;;;;;;;30.30;78.60;;;;;;6250584;22;20007;-72
2023/06/25 17:18:01;;;;;;;;;;;30.30;78.40;;;;;;6250700;22;19911;-74
2023/06/25 17:20:27;;;;;;;;;;;30.30;78.90;;;;;;6250547;22;19915;-73
2023/06/25 17:22:52;;;;;;;;;;;30.30;79.10;;;;;;6278021;22;19930;-74
2023/06/25 17:25:18;;;;;;;;;;;30.20;79.50;;;;;;6250552;22;19918;-74
2023/06/25 17:27:44;;;;;;;;;;;30.20;78.70;;;;;;6250512;22;19969;-73
2023/06/25 17:30:09;;;;;;;;;;;30.20;80.00;;;;;;6250497;22;20348;-74
2023/06/25 17:32:35;;;;;;;;;;;30.20;79.50;;;;;;6250275;22;19921;-73
2023/06/25 17:35:00;;;;;;;;;;;30.10;79.10;;;;;;6250501;22;19957;-75
2023/06/25 17:37:26;;;;;;;;;;;30.10;79.70;;;;;;6250646;22;19911;-73
2023/06/25 17:39:52;;;;;;;;;;;30.10;79.30;;;;;;6277779;22;20294;-73
2023/06/25 17:42:17;;;;;;;;;;;30.10;79.10;;;;;;6277844;22;20275;-73
2023/06/25 17:44:43;;;;;;;;;;;30.10;79.30;;;;;;6250923;22;19911;-73
2023/06/25 17:47:08;;;;;;;;;;;30.10;79.00;;;;;;6250626;22;19911;-73
2023/06/25 17:49:34;;;;;;;;;;;30.00;79.70;;;;;;6250564;22;19973;-73
2023/06/25 17:51:59;;;;;;;;;;;30.00;79.60;;;;;;6276146;22;19965;-77
2023/06/25 17:54:25;;;;;;;;;;;30.00;79.90;;;;;;6251502;22;20235;-73
2023/06/25 17:56:50;;;;;;;;;;;30.00;79.90;;;;;;6277371;22;20248;-73
2023/06/25 17:59:19;;;;;;;;;;;30.00;80.10;;;;;;6278107;22;19922;-73
2023/06/25 18:01:44;;;;;;;;;;;29.90;80.40;;;;;;6249879;22;19911;-74
2023/06/25 18:04:10;;;;;;;;;;;29.90;80.40;;;;;;6250072;22;19911;-73
2023/06/25 18:06:35;;;;;;;;;;;29.90;79.30;;;;;;6277973;22;19942;-73
2023/06/25 18:09:01;;;;;;;;;;;29.90;80.60;;;;;;6250179;22;19944;-73